createdAt,value
2018-06-21T00:00:25.963Z,1010.30
2018-06-21T00:01:25.948Z,1010.30
2018-06-21T00:02:25.941Z,1010.31
2018-06-21T00:03:25.929Z,1010.28
2018-06-21T00:04:25.945Z,1010.30
2018-06-21T00:05:25.898Z,1010.28
2018-06-21T00:06:25.891Z,1010.28
2018-06-21T00:07:25.930Z,1010.24
2018-06-21T00:08:25.859Z,1010.28
2018-06-21T00:09:25.854Z,1010.27
2018-06-21T00:10:25.884Z,1010.27
2018-06-21T00:11:25.825Z,1010.24
2018-06-21T00:12:25.813Z,1010.24
2018-06-21T00:13:25.794Z,1010.23
2018-06-21T00:14:25.790Z,1010.22
2018-06-21T00:15:25.769Z,1010.20
2018-06-21T00:16:25.760Z,1010.17
2018-06-21T00:17:25.744Z,1010.18
2018-06-21T00:18:25.802Z,1010.19
2018-06-21T00:19:25.723Z,1010.15
2018-06-21T00:20:25.714Z,1010.18
2018-06-21T00:21:25.697Z,1010.19
2018-06-21T00:22:25.687Z,1010.18
2018-06-21T00:23:25.769Z,1010.19
2018-06-21T00:24:25.660Z,1010.17
2018-06-21T00:25:25.644Z,1010.15
2018-06-21T00:26:25.668Z,1010.14
2018-06-21T00:27:25.621Z,1010.12
2018-06-21T00:28:25.606Z,1010.11
2018-06-21T00:29:25.672Z,1010.14
2018-06-21T00:30:25.583Z,1010.12
2018-06-21T00:31:25.568Z,1010.12
2018-06-21T00:32:25.557Z,1010.13
2018-06-21T00:33:25.543Z,1010.08
2018-06-21T00:34:25.527Z,1010.09
2018-06-21T00:35:25.518Z,1010.06
2018-06-21T00:36:25.503Z,1010.03
2018-06-21T00:37:25.487Z,1009.98
2018-06-21T00:38:25.481Z,1009.97
2018-06-21T00:39:25.468Z,1009.98
2018-06-21T00:40:25.449Z,1009.98
2018-06-21T00:41:25.435Z,1009.96
2018-06-21T00:42:25.437Z,1009.95
2018-06-21T00:43:25.409Z,1009.91
2018-06-21T00:44:25.410Z,1009.88
2018-06-21T00:45:25.384Z,1009.87
2018-06-21T00:46:25.374Z,1009.81
2018-06-21T00:47:25.370Z,1009.85
2018-06-21T00:48:25.343Z,1009.89
2018-06-21T00:49:25.334Z,1009.87
2018-06-21T00:50:25.320Z,1009.88
2018-06-21T00:51:25.313Z,1009.85
2018-06-21T00:52:25.297Z,1009.81
2018-06-21T00:53:25.280Z,1009.79
2018-06-21T00:54:25.273Z,1009.76
2018-06-21T00:55:25.253Z,1009.75
2018-06-21T00:56:25.242Z,1009.75
2018-06-21T00:57:25.229Z,1009.71
2018-06-21T00:58:25.219Z,1009.70
2018-06-21T00:59:25.204Z,1009.70
2018-06-21T01:00:25.197Z,1009.71
2018-06-21T01:01:25.177Z,1009.64
2018-06-21T01:02:25.167Z,1009.62
2018-06-21T01:03:25.147Z,1009.61
2018-06-21T01:04:25.145Z,1009.55
2018-06-21T01:05:25.122Z,1009.54
2018-06-21T01:06:25.186Z,1009.51
2018-06-21T01:07:25.099Z,1009.51
2018-06-21T01:08:25.089Z,1009.46
2018-06-21T01:09:25.074Z,1009.53
2018-06-21T01:10:25.060Z,1009.49
2018-06-21T01:11:25.054Z,1009.47
2018-06-21T01:12:25.036Z,1009.48
2018-06-21T01:13:25.020Z,1009.40
2018-06-21T01:14:25.011Z,1009.41
2018-06-21T01:15:24.996Z,1009.43
2018-06-21T01:16:24.981Z,1009.39
2018-06-21T01:17:24.973Z,1009.39
2018-06-21T01:18:24.956Z,1009.38
2018-06-21T01:19:24.953Z,1009.37
2018-06-21T01:20:24.927Z,1009.38
2018-06-21T01:21:24.913Z,1009.40
2018-06-21T01:22:24.901Z,1009.41
2018-06-21T01:23:24.885Z,1009.38
2018-06-21T01:24:24.878Z,1009.35
2018-06-21T01:25:24.924Z,1009.35
2018-06-21T01:26:24.845Z,1009.34
2018-06-21T01:27:24.839Z,1009.36
2018-06-21T01:28:24.821Z,1009.34
2018-06-21T01:29:24.804Z,1009.33
2018-06-21T01:30:24.798Z,1009.32
2018-06-21T01:31:24.778Z,1009.25
2018-06-21T01:32:24.765Z,1009.25
2018-06-21T01:33:24.851Z,1009.22
2018-06-21T01:34:24.745Z,1009.21
2018-06-21T01:35:24.727Z,1009.21
2018-06-21T01:36:24.719Z,1009.27
2018-06-21T01:37:24.753Z,1009.25
2018-06-21T01:38:24.687Z,1009.25
2018-06-21T01:39:24.672Z,1009.27
2018-06-21T01:40:24.660Z,1009.27
2018-06-21T01:41:24.649Z,1009.27
2018-06-21T01:42:24.634Z,1009.25
2018-06-21T01:43:24.622Z,1009.21
2018-06-21T01:44:24.609Z,1009.23
2018-06-21T01:45:24.596Z,1009.20
2018-06-21T01:46:24.576Z,1009.22
2018-06-21T01:47:24.567Z,1009.17
2018-06-21T01:48:24.553Z,1009.24
2018-06-21T01:49:24.639Z,1009.21
2018-06-21T01:50:24.528Z,1009.26
2018-06-21T01:51:24.513Z,1009.21
2018-06-21T01:52:24.504Z,1009.26
2018-06-21T01:53:24.489Z,1009.25
2018-06-21T01:54:24.472Z,1009.27
2018-06-21T01:55:24.458Z,1009.28
2018-06-21T01:56:24.456Z,1009.30
2018-06-21T01:57:24.434Z,1009.31
2018-06-21T01:58:24.420Z,1009.32
2018-06-21T01:59:24.409Z,1009.32
2018-06-21T02:00:24.394Z,1009.33
2018-06-21T02:01:24.378Z,1009.31
2018-06-21T02:02:24.371Z,1009.29
2018-06-21T02:03:24.354Z,1009.27
2018-06-21T02:04:24.339Z,1009.26
2018-06-21T02:05:24.328Z,1009.19
2018-06-21T02:06:24.315Z,1009.18
2018-06-21T02:07:24.299Z,1009.19
2018-06-21T02:08:24.290Z,1009.14
2018-06-21T02:09:24.279Z,1009.14
2018-06-21T02:10:24.260Z,1009.17
2018-06-21T02:11:24.247Z,1009.18
2018-06-21T02:12:24.235Z,1009.07
2018-06-21T02:13:24.225Z,1009.09
2018-06-21T02:14:24.210Z,1009.05
2018-06-21T02:15:24.200Z,1009.04
2018-06-21T02:16:24.179Z,1009.00
2018-06-21T02:17:24.165Z,1008.99
2018-06-21T02:18:24.157Z,1009.00
2018-06-21T02:19:24.137Z,1009.00
2018-06-21T02:20:24.127Z,1009.03
2018-06-21T02:21:24.113Z,1009.02
2018-06-21T02:22:24.099Z,1008.99
2018-06-21T02:23:24.085Z,1008.96
2018-06-21T02:24:24.071Z,1008.89
2018-06-21T02:25:24.064Z,1008.95
2018-06-21T02:26:24.057Z,1008.97
2018-06-21T02:27:24.047Z,1008.92
2018-06-21T02:28:24.022Z,1008.95
2018-06-21T02:29:24.012Z,1008.94
2018-06-21T02:30:23.991Z,1008.92
2018-06-21T02:31:23.992Z,1008.89
2018-06-21T02:32:23.967Z,1008.87
2018-06-21T02:33:23.953Z,1008.86
2018-06-21T02:34:24.008Z,1008.84
2018-06-21T02:35:23.928Z,1008.84
2018-06-21T02:36:23.912Z,1008.79
2018-06-21T02:37:23.902Z,1008.81
2018-06-21T02:38:23.891Z,1008.80
2018-06-21T02:39:23.876Z,1008.83
2018-06-21T02:40:23.857Z,1008.77
2018-06-21T02:41:23.853Z,1008.75
2018-06-21T02:42:23.832Z,1008.76
2018-06-21T02:43:23.818Z,1008.69
2018-06-21T02:44:23.806Z,1008.71
2018-06-21T02:45:23.855Z,1008.67
2018-06-21T02:46:23.778Z,1008.65
2018-06-21T02:47:23.770Z,1008.60
2018-06-21T02:48:23.802Z,1008.60
2018-06-21T02:49:23.736Z,1008.53
2018-06-21T02:50:23.725Z,1008.55
2018-06-21T02:51:23.716Z,1008.54
2018-06-21T02:52:23.703Z,1008.53
2018-06-21T02:53:23.682Z,1008.50
2018-06-21T02:54:23.671Z,1008.49
2018-06-21T02:55:23.657Z,1008.47
2018-06-21T02:56:23.644Z,1008.46
2018-06-21T02:57:23.631Z,1008.43
2018-06-21T02:58:23.623Z,1008.42
2018-06-21T02:59:23.609Z,1008.42
2018-06-21T03:00:23.590Z,1008.39
2018-06-21T03:01:23.578Z,1008.37
2018-06-21T03:02:23.559Z,1008.33
2018-06-21T03:03:23.545Z,1008.33
2018-06-21T03:04:23.638Z,1008.29
2018-06-21T03:05:23.519Z,1008.31
2018-06-21T03:06:23.522Z,1008.31
2018-06-21T03:07:23.547Z,1008.28
2018-06-21T03:08:23.480Z,1008.33
2018-06-21T03:09:23.466Z,1008.32
2018-06-21T03:10:23.461Z,1008.31
2018-06-21T03:11:23.434Z,1008.32
2018-06-21T03:12:23.419Z,1008.34
2018-06-21T03:13:23.410Z,1008.29
2018-06-21T03:14:23.392Z,1008.31
2018-06-21T03:15:23.380Z,1008.30
2018-06-21T03:16:23.369Z,1008.30
2018-06-21T03:17:23.354Z,1008.28
2018-06-21T03:18:23.341Z,1008.28
2018-06-21T03:19:23.326Z,1008.21
2018-06-21T03:20:23.315Z,1008.24
2018-06-21T03:21:23.302Z,1008.21
2018-06-21T03:22:23.287Z,1008.21
2018-06-21T03:23:23.277Z,1008.21
2018-06-21T03:24:23.257Z,1008.22
2018-06-21T03:25:23.252Z,1008.23
2018-06-21T03:26:23.230Z,1008.19
2018-06-21T03:27:23.216Z,1008.25
2018-06-21T03:28:23.266Z,1008.27
2018-06-21T03:29:23.191Z,1008.25
2018-06-21T03:30:23.177Z,1008.23
2018-06-21T03:31:23.213Z,1008.27
2018-06-21T03:32:23.151Z,1008.26
2018-06-21T03:33:23.130Z,1008.27
2018-06-21T03:34:23.122Z,1008.26
2018-06-21T03:35:23.109Z,1008.25
2018-06-21T03:36:23.090Z,1008.24
2018-06-21T03:37:23.074Z,1008.22
2018-06-21T03:38:23.059Z,1008.22
2018-06-21T03:39:23.051Z,1008.18
2018-06-21T03:40:23.042Z,1008.19
2018-06-21T03:41:23.021Z,1008.10
2018-06-21T03:42:23.010Z,1008.13
2018-06-21T03:43:22.994Z,1008.12
2018-06-21T03:44:23.090Z,1008.13
2018-06-21T03:45:22.969Z,1008.08
2018-06-21T03:46:22.949Z,1008.07
2018-06-21T03:47:22.939Z,1008.05
2018-06-21T03:48:22.924Z,1008.01
2018-06-21T03:49:22.909Z,1008.01
2018-06-21T03:50:22.899Z,1008.00
2018-06-21T03:51:22.882Z,1008.00
2018-06-21T03:52:22.973Z,1007.98
2018-06-21T03:53:22.859Z,1007.98
2018-06-21T03:54:22.840Z,1007.94
2018-06-21T03:55:22.826Z,1007.88
2018-06-21T03:56:22.814Z,1007.92
2018-06-21T03:57:22.805Z,1007.91
2018-06-21T03:58:22.788Z,1007.93
2018-06-21T03:59:22.770Z,1007.95
2018-06-21T04:00:22.756Z,1007.96
2018-06-21T04:01:22.749Z,1007.93
2018-06-21T04:02:22.730Z,1007.89
2018-06-21T04:03:22.735Z,1007.89
2018-06-21T04:04:22.701Z,1007.84
2018-06-21T04:05:22.709Z,1007.83
2018-06-21T04:06:22.679Z,1007.78
2018-06-21T04:07:22.660Z,1007.81
2018-06-21T04:08:22.730Z,1007.80
2018-06-21T04:09:22.633Z,1007.72
2018-06-21T04:10:22.631Z,1007.75
2018-06-21T04:11:22.710Z,1007.74
2018-06-21T04:12:22.603Z,1007.77
2018-06-21T04:13:22.577Z,1007.76
2018-06-21T04:14:22.563Z,1007.76
2018-06-21T04:15:22.550Z,1007.74
2018-06-21T04:16:22.536Z,1007.71
2018-06-21T04:17:22.547Z,1007.74
2018-06-21T04:18:22.509Z,1007.73
2018-06-21T04:19:22.499Z,1007.75
2018-06-21T04:20:22.480Z,1007.81
2018-06-21T04:21:22.469Z,1007.84
2018-06-21T04:22:22.454Z,1007.85
2018-06-21T04:23:22.444Z,1007.84
2018-06-21T04:24:22.425Z,1007.85
2018-06-21T04:25:22.415Z,1007.88
2018-06-21T04:26:22.400Z,1007.86
2018-06-21T04:27:22.384Z,1007.84
2018-06-21T04:28:22.368Z,1007.84
2018-06-21T04:29:22.360Z,1007.84
2018-06-21T04:30:22.345Z,1007.81
2018-06-21T04:31:22.329Z,1007.79
2018-06-21T04:32:22.365Z,1007.78
2018-06-21T04:33:22.299Z,1007.78
2018-06-21T04:34:22.289Z,1007.76
2018-06-21T04:35:22.272Z,1007.73
2018-06-21T04:36:22.258Z,1007.72
2018-06-21T04:37:22.246Z,1007.72
2018-06-21T04:38:22.230Z,1007.69
2018-06-21T04:39:22.221Z,1007.68
2018-06-21T04:40:22.203Z,1007.66
2018-06-21T04:41:22.188Z,1007.68
2018-06-21T04:42:22.178Z,1007.69
2018-06-21T04:43:22.176Z,1007.68
2018-06-21T04:44:22.150Z,1007.66
2018-06-21T04:45:22.132Z,1007.64
2018-06-21T04:46:22.225Z,1007.70
2018-06-21T04:47:22.110Z,1007.67
2018-06-21T04:48:22.102Z,1007.69
2018-06-21T04:49:22.083Z,1007.69
2018-06-21T04:50:22.067Z,1007.69
2018-06-21T04:51:22.051Z,1007.68
2018-06-21T04:52:22.040Z,1007.63
2018-06-21T04:53:22.075Z,1007.65
2018-06-21T04:54:22.009Z,1007.66
2018-06-21T04:55:21.995Z,1007.64
2018-06-21T04:56:21.989Z,1007.64
2018-06-21T04:57:21.972Z,1007.65
2018-06-21T04:58:21.957Z,1007.68
2018-06-21T04:59:21.940Z,1007.68
2018-06-21T05:00:21.930Z,1007.66
2018-06-21T05:01:21.916Z,1007.66
2018-06-21T05:02:21.899Z,1007.66
2018-06-21T05:03:21.885Z,1007.66
2018-06-21T05:04:21.877Z,1007.63
2018-06-21T05:05:21.858Z,1007.62
2018-06-21T05:06:21.895Z,1007.67
2018-06-21T05:07:21.830Z,1007.65
2018-06-21T05:08:21.820Z,1007.71
2018-06-21T05:09:21.813Z,1007.67
2018-06-21T05:10:21.790Z,1007.66
2018-06-21T05:11:21.775Z,1007.67
2018-06-21T05:12:21.763Z,1007.63
2018-06-21T05:13:21.748Z,1007.59
2018-06-21T05:14:21.730Z,1007.58
2018-06-21T05:15:21.719Z,1007.61
2018-06-21T05:16:21.707Z,1007.68
2018-06-21T05:17:21.690Z,1007.74
2018-06-21T05:18:21.718Z,1007.80
2018-06-21T05:19:21.664Z,1007.79
2018-06-21T05:20:21.652Z,1007.70
2018-06-21T05:21:21.633Z,1007.58
2018-06-21T05:22:21.619Z,1007.59
2018-06-21T05:23:21.606Z,1007.68
2018-06-21T05:24:21.592Z,1007.69
2018-06-21T05:25:21.582Z,1007.74
2018-06-21T05:26:21.570Z,1007.75
2018-06-21T05:27:21.551Z,1007.82
2018-06-21T05:28:21.538Z,1007.84
2018-06-21T05:29:21.532Z,1007.79
2018-06-21T05:30:21.511Z,1007.74
2018-06-21T05:31:21.499Z,1007.69
2018-06-21T05:32:21.490Z,1007.71
2018-06-21T05:33:21.469Z,1007.78
2018-06-21T05:34:21.456Z,1007.74
2018-06-21T05:35:21.440Z,1007.73
2018-06-21T05:36:21.429Z,1007.74
2018-06-21T05:37:21.425Z,1007.75
2018-06-21T05:38:21.400Z,1007.78
2018-06-21T05:39:21.391Z,1007.83
2018-06-21T05:40:21.384Z,1007.81
2018-06-21T05:41:21.356Z,1007.85
2018-06-21T05:42:21.347Z,1007.89
2018-06-21T05:43:21.330Z,1007.87
2018-06-21T05:44:21.360Z,1007.86
2018-06-21T05:45:21.302Z,1007.93
2018-06-21T05:46:21.299Z,1007.94
2018-06-21T05:47:21.281Z,1007.92
2018-06-21T05:48:21.259Z,1007.93
2018-06-21T05:49:21.244Z,1007.92
2018-06-21T05:50:21.241Z,1007.91
2018-06-21T05:51:21.219Z,1007.83
2018-06-21T05:52:21.206Z,1007.80
2018-06-21T05:53:21.205Z,1007.81
2018-06-21T05:54:21.173Z,1007.83
2018-06-21T05:55:21.157Z,1007.81
2018-06-21T05:56:21.147Z,1007.82
2018-06-21T05:57:21.129Z,1007.89
2018-06-21T05:58:21.115Z,1007.83
2018-06-21T05:59:21.103Z,1007.85
2018-06-21T06:00:21.125Z,1007.82
2018-06-21T06:01:21.077Z,1007.83
2018-06-21T06:02:21.058Z,1007.81
2018-06-21T06:03:21.047Z,1007.84
2018-06-21T06:04:21.029Z,1007.77
2018-06-21T06:05:21.018Z,1007.88
2018-06-21T06:06:21.010Z,1007.89
2018-06-21T06:07:20.991Z,1007.86
2018-06-21T06:08:20.999Z,1007.86
2018-06-21T06:09:20.971Z,1007.90
2018-06-21T06:10:20.951Z,1007.91
2018-06-21T06:11:20.960Z,1007.95
2018-06-21T06:12:20.921Z,1007.98
2018-06-21T06:13:20.909Z,1007.98
2018-06-21T06:14:20.902Z,1008.07
2018-06-21T06:15:20.881Z,1008.06
2018-06-21T06:16:20.872Z,1008.09
2018-06-21T06:17:20.852Z,1008.16
2018-06-21T06:18:20.832Z,1008.13
2018-06-21T06:19:20.820Z,1008.08
2018-06-21T06:20:20.803Z,1008.16
2018-06-21T06:21:20.787Z,1008.07
2018-06-21T06:22:20.778Z,1008.10
2018-06-21T06:23:20.761Z,1008.18
2018-06-21T06:24:20.745Z,1008.19
2018-06-21T06:25:20.730Z,1008.25
2018-06-21T06:26:20.721Z,1008.24
2018-06-21T06:27:20.705Z,1008.21
2018-06-21T06:28:20.739Z,1008.26
2018-06-21T06:29:20.671Z,1008.34
2018-06-21T06:30:20.662Z,1008.31
2018-06-21T06:31:20.654Z,1008.36
2018-06-21T06:32:20.629Z,1008.30
2018-06-21T06:33:20.619Z,1008.35
2018-06-21T06:34:20.599Z,1008.33
2018-06-21T06:35:20.589Z,1008.31
2018-06-21T06:36:20.570Z,1008.31
2018-06-21T06:37:20.555Z,1008.38
2018-06-21T06:38:20.541Z,1008.31
2018-06-21T06:39:20.524Z,1008.33
2018-06-21T06:40:20.516Z,1008.36
2018-06-21T06:41:20.498Z,1008.37
2018-06-21T06:42:20.480Z,1008.38
2018-06-21T06:43:20.468Z,1008.40
2018-06-21T06:44:20.451Z,1008.39
2018-06-21T06:45:20.446Z,1008.39
2018-06-21T06:46:20.499Z,1008.39
2018-06-21T06:47:20.405Z,1008.35
2018-06-21T06:48:20.397Z,1008.37
2018-06-21T06:49:20.380Z,1008.41
2018-06-21T06:50:20.365Z,1008.43
2018-06-21T06:51:20.353Z,1008.45
2018-06-21T06:52:20.335Z,1008.42
2018-06-21T06:53:20.319Z,1008.42
2018-06-21T06:54:20.351Z,1008.46
2018-06-21T06:55:20.312Z,1008.45
2018-06-21T06:56:20.276Z,1008.46
2018-06-21T06:57:20.263Z,1008.46
2018-06-21T06:58:20.248Z,1008.50
2018-06-21T06:59:20.247Z,1008.51
2018-06-21T07:00:20.216Z,1008.50
2018-06-21T07:01:20.202Z,1008.52
2018-06-21T07:02:20.186Z,1008.46
2018-06-21T07:03:20.169Z,1008.52
2018-06-21T07:04:20.160Z,1008.52
2018-06-21T07:05:20.146Z,1008.53
2018-06-21T07:06:20.129Z,1008.52
2018-06-21T07:07:20.111Z,1008.54
2018-06-21T07:08:20.243Z,1008.58
2018-06-21T07:09:20.082Z,1008.63
2018-06-21T07:10:20.075Z,1008.65
2018-06-21T07:11:20.151Z,1008.57
2018-06-21T07:12:20.042Z,1008.65
2018-06-21T07:13:20.024Z,1008.68
2018-06-21T07:14:20.071Z,1008.63
2018-06-21T07:15:19.996Z,1008.63
2018-06-21T07:16:19.978Z,1008.66
2018-06-21T07:17:19.962Z,1008.68
2018-06-21T07:18:19.949Z,1008.69
2018-06-21T07:19:19.937Z,1008.78
2018-06-21T07:20:19.979Z,1008.80
2018-06-21T07:21:19.904Z,1008.76
2018-06-21T07:22:19.892Z,1008.73
2018-06-21T07:23:19.876Z,1008.71
2018-06-21T07:24:19.871Z,1008.80
2018-06-21T07:25:19.850Z,1008.78
2018-06-21T07:26:19.836Z,1008.88
2018-06-21T07:27:19.819Z,1008.87
2018-06-21T07:28:19.801Z,1008.88
2018-06-21T07:29:19.787Z,1008.82
2018-06-21T07:30:19.770Z,1008.86
2018-06-21T07:31:19.761Z,1008.83
2018-06-21T07:32:19.743Z,1008.86
2018-06-21T07:33:19.725Z,1008.95
2018-06-21T07:34:19.713Z,1008.91
2018-06-21T07:35:19.701Z,1008.88
2018-06-21T07:36:19.683Z,1008.91
2018-06-21T07:37:19.669Z,1008.97
2018-06-21T07:38:19.652Z,1008.96
2018-06-21T07:39:19.636Z,1008.99
2018-06-21T07:40:19.623Z,1009.02
2018-06-21T07:41:19.605Z,1009.06
2018-06-21T07:42:19.590Z,1009.11
2018-06-21T07:44:19.569Z,1009.09
2018-06-21T07:45:19.598Z,1009.11
2018-06-21T07:46:19.536Z,1009.18
2018-06-21T07:47:19.518Z,1009.11
2018-06-21T07:48:19.506Z,1009.15
2018-06-21T07:49:19.490Z,1009.17
2018-06-21T07:50:19.477Z,1009.17
2018-06-21T07:51:19.457Z,1009.17
2018-06-21T07:52:19.445Z,1009.16
2018-06-21T07:53:19.433Z,1009.19
2018-06-21T07:54:19.465Z,1009.18
2018-06-21T07:55:19.401Z,1009.23
2018-06-21T07:56:19.393Z,1009.27
2018-06-21T07:57:19.374Z,1009.28
2018-06-21T07:58:19.364Z,1009.29
2018-06-21T07:59:19.340Z,1009.25
2018-06-21T08:00:19.327Z,1009.27
2018-06-21T08:01:19.310Z,1009.31
2018-06-21T08:02:19.300Z,1009.29
2018-06-21T08:03:19.281Z,1009.38
2018-06-21T08:04:19.269Z,1009.51
2018-06-21T08:05:19.248Z,1009.48
2018-06-21T08:06:19.235Z,1009.46
2018-06-21T08:07:19.225Z,1009.45
2018-06-21T08:08:19.211Z,1009.46
2018-06-21T08:09:19.190Z,1009.44
2018-06-21T08:10:19.174Z,1009.57
2018-06-21T08:11:19.178Z,1009.56
2018-06-21T08:12:19.155Z,1009.52
2018-06-21T08:13:19.134Z,1009.47
2018-06-21T08:14:19.116Z,1009.53
2018-06-21T08:15:19.101Z,1009.60
2018-06-21T08:16:19.086Z,1009.55
2018-06-21T08:17:19.071Z,1009.53
2018-06-21T08:18:19.069Z,1009.55
2018-06-21T08:19:19.043Z,1009.65
2018-06-21T08:20:19.096Z,1009.67
2018-06-21T08:21:19.065Z,1009.61
2018-06-21T08:22:18.999Z,1009.62
2018-06-21T08:23:19.034Z,1009.57
2018-06-21T08:24:18.975Z,1009.57
2018-06-21T08:25:18.951Z,1009.60
2018-06-21T08:26:18.944Z,1009.59
2018-06-21T08:27:18.921Z,1009.66
2018-06-21T08:28:18.910Z,1009.66
2018-06-21T08:29:18.892Z,1009.71
2018-06-21T08:30:18.886Z,1009.72
2018-06-21T08:31:18.870Z,1009.68
2018-06-21T08:32:18.917Z,1009.67
2018-06-21T08:33:18.837Z,1009.72
2018-06-21T08:34:18.819Z,1009.69
2018-06-21T08:35:18.812Z,1009.83
2018-06-21T08:36:18.794Z,1009.69
2018-06-21T08:37:18.807Z,1009.83
2018-06-21T08:38:18.761Z,1009.76
2018-06-21T08:39:18.745Z,1009.84
2018-06-21T08:40:18.741Z,1009.84
2018-06-21T08:41:18.718Z,1009.83
2018-06-21T08:42:18.706Z,1009.93
2018-06-21T08:43:18.687Z,1009.93
2018-06-21T08:44:18.681Z,1010.05
2018-06-21T08:45:18.663Z,1010.00
2018-06-21T08:46:18.646Z,1010.04
2018-06-21T08:47:18.633Z,1010.03
2018-06-21T08:48:18.620Z,1010.05
2018-06-21T08:49:18.598Z,1010.03
2018-06-21T08:50:18.595Z,1010.08
2018-06-21T08:51:18.569Z,1010.15
2018-06-21T08:52:18.562Z,1010.27
2018-06-21T08:53:18.550Z,1010.20
2018-06-21T08:54:18.526Z,1010.23
2018-06-21T08:55:18.515Z,1010.24
2018-06-21T08:56:18.542Z,1010.21
2018-06-21T08:57:18.484Z,1010.23
2018-06-21T08:58:18.507Z,1010.16
2018-06-21T08:59:18.462Z,1010.31
2018-06-21T09:00:18.438Z,1010.27
2018-06-21T09:01:18.422Z,1010.21
2018-06-21T09:02:18.408Z,1010.11
2018-06-21T09:03:18.395Z,1010.09
2018-06-21T09:04:18.378Z,1010.13
2018-06-21T09:05:18.381Z,1010.06
2018-06-21T09:06:18.352Z,1010.17
2018-06-21T09:07:18.340Z,1010.13
2018-06-21T09:08:18.320Z,1010.15
2018-06-21T09:09:18.308Z,1010.27
2018-06-21T09:10:18.295Z,1010.27
2018-06-21T09:11:18.275Z,1010.23
2018-06-21T09:12:18.267Z,1010.15
2018-06-21T09:13:18.249Z,1010.14
2018-06-21T09:14:18.234Z,1010.18
2018-06-21T09:15:18.237Z,1010.19
2018-06-21T09:16:18.203Z,1010.23
2018-06-21T09:17:18.193Z,1010.24
2018-06-21T09:18:18.175Z,1010.22
2018-06-21T09:19:18.171Z,1010.29
2018-06-21T09:20:18.215Z,1010.18
2018-06-21T09:21:18.157Z,1010.29
2018-06-21T09:22:18.120Z,1010.40
2018-06-21T09:23:18.105Z,1010.38
2018-06-21T09:24:18.090Z,1010.33
2018-06-21T09:25:18.075Z,1010.41
2018-06-21T09:26:18.060Z,1010.39
2018-06-21T09:27:18.049Z,1010.39
2018-06-21T09:28:18.034Z,1010.46
2018-06-21T09:29:18.028Z,1010.42
2018-06-21T09:30:18.018Z,1010.42
2018-06-21T09:31:17.995Z,1010.40
2018-06-21T09:32:17.982Z,1010.33
2018-06-21T09:33:17.986Z,1010.40
2018-06-21T09:34:17.946Z,1010.48
2018-06-21T09:35:17.930Z,1010.57
2018-06-21T09:36:17.921Z,1010.72
2018-06-21T09:37:17.904Z,1010.81
2018-06-21T09:38:17.889Z,1010.82
2018-06-21T09:39:17.882Z,1010.73
2018-06-21T09:40:17.861Z,1010.74
2018-06-21T09:41:17.845Z,1010.85
2018-06-21T09:42:17.880Z,1010.75
2018-06-21T09:43:17.813Z,1010.89
2018-06-21T09:44:17.803Z,1010.87
2018-06-21T09:45:17.784Z,1011.07
2018-06-21T09:46:17.769Z,1011.03
2018-06-21T09:47:17.754Z,1011.04
2018-06-21T09:48:17.746Z,1011.05
2018-06-21T09:49:17.722Z,1011.00
2018-06-21T09:50:17.707Z,1011.02
2018-06-21T09:51:17.701Z,1011.01
2018-06-21T09:52:17.678Z,1010.93
2018-06-21T09:53:17.666Z,1010.97
2018-06-21T09:54:17.649Z,1010.97
2018-06-21T09:55:17.634Z,1010.97
2018-06-21T09:56:17.618Z,1011.01
2018-06-21T09:57:17.602Z,1011.01
2018-06-21T09:58:17.586Z,1011.04
2018-06-21T09:59:17.581Z,1011.17
2018-06-21T10:00:17.562Z,1011.15
2018-06-21T10:01:17.550Z,1011.02
2018-06-21T10:02:17.527Z,1011.17
2018-06-21T10:03:17.521Z,1011.19
2018-06-21T10:04:17.506Z,1011.14
2018-06-21T10:05:17.493Z,1011.02
2018-06-21T10:06:17.474Z,1011.08
2018-06-21T10:07:17.457Z,1011.04
2018-06-21T10:08:17.440Z,1011.22
2018-06-21T10:09:17.429Z,1010.89
2018-06-21T10:10:17.412Z,1010.89
2018-06-21T10:11:17.396Z,1010.97
2018-06-21T10:12:17.381Z,1011.00
2018-06-21T10:13:17.369Z,1011.09
2018-06-21T10:14:17.352Z,1011.30
2018-06-21T10:15:17.343Z,1011.17
2018-06-21T10:16:17.324Z,1011.17
2018-06-21T10:17:17.312Z,1011.17
2018-06-21T10:18:17.297Z,1011.35
2018-06-21T10:19:17.279Z,1011.28
2018-06-21T10:20:17.273Z,1011.28
2018-06-21T10:21:17.269Z,1011.30
2018-06-21T10:22:17.245Z,1011.31
2018-06-21T10:23:17.223Z,1011.38
2018-06-21T10:24:17.205Z,1011.26
2018-06-21T10:25:17.201Z,1011.29
2018-06-21T10:26:17.184Z,1011.29
2018-06-21T10:27:17.176Z,1011.33
2018-06-21T10:28:17.149Z,1011.27
2018-06-21T10:29:17.140Z,1011.25
2018-06-21T10:30:17.128Z,1011.40
2018-06-21T10:31:17.104Z,1011.34
2018-06-21T10:32:17.094Z,1011.59
2018-06-21T10:33:17.077Z,1011.66
2018-06-21T10:34:17.062Z,1011.55
2018-06-21T10:35:17.049Z,1011.58
2018-06-21T10:36:17.032Z,1011.49
2018-06-21T10:37:17.023Z,1011.50
2018-06-21T10:38:17.012Z,1011.23
2018-06-21T10:39:16.991Z,1011.48
2018-06-21T10:40:16.976Z,1011.33
2018-06-21T10:41:17.056Z,1011.54
2018-06-21T10:42:16.952Z,1011.62
2018-06-21T10:43:16.940Z,1011.66
2018-06-21T10:44:17.020Z,1011.39
2018-06-21T10:45:16.904Z,1011.41
2018-06-21T10:46:16.893Z,1011.69
2018-06-21T10:47:16.877Z,1011.59
2018-06-21T10:48:16.862Z,1011.71
2018-06-21T10:49:16.861Z,1011.69
2018-06-21T10:50:16.838Z,1011.59
2018-06-21T10:51:16.818Z,1011.75
2018-06-21T10:52:16.856Z,1011.76
2018-06-21T10:53:16.785Z,1011.81
2018-06-21T10:54:16.778Z,1011.78
2018-06-21T10:55:16.762Z,1011.82
2018-06-21T10:56:16.746Z,1011.82
2018-06-21T10:57:16.737Z,1011.85
2018-06-21T10:58:16.721Z,1011.61
2018-06-21T10:59:16.703Z,1011.76
2018-06-21T11:00:16.692Z,1011.76
2018-06-21T11:01:16.681Z,1011.60
2018-06-21T11:02:16.659Z,1011.75
2018-06-21T11:03:16.666Z,1011.81
2018-06-21T11:04:16.633Z,1011.84
2018-06-21T11:05:16.656Z,1011.97
2018-06-21T11:06:16.606Z,1011.73
2018-06-21T11:07:16.599Z,1011.95
2018-06-21T11:08:16.648Z,1012.28
2018-06-21T11:09:16.566Z,1011.94
2018-06-21T11:10:16.548Z,1012.07
2018-06-21T11:11:16.540Z,1012.06
2018-06-21T11:12:16.526Z,1012.04
2018-06-21T11:13:16.503Z,1012.12
2018-06-21T11:14:16.500Z,1011.83
2018-06-21T11:15:16.478Z,1011.95
2018-06-21T11:16:16.459Z,1012.03
2018-06-21T11:17:16.442Z,1011.99
2018-06-21T11:18:16.444Z,1011.99
2018-06-21T11:19:16.417Z,1012.02
2018-06-21T11:20:16.401Z,1012.06
2018-06-21T11:21:16.394Z,1012.16
2018-06-21T11:22:16.376Z,1012.01
2018-06-21T11:23:16.364Z,1012.06
2018-06-21T11:24:16.350Z,1012.02
2018-06-21T11:25:16.331Z,1011.96
2018-06-21T11:26:16.321Z,1011.93
2018-06-21T11:27:16.408Z,1012.20
2018-06-21T11:28:16.286Z,1012.06
2018-06-21T11:29:16.273Z,1012.18
2018-06-21T11:30:16.260Z,1012.41
2018-06-21T11:31:16.252Z,1012.14
2018-06-21T11:32:16.233Z,1011.98
2018-06-21T11:33:16.219Z,1012.07
2018-06-21T11:34:16.209Z,1012.31
2018-06-21T11:35:16.192Z,1012.19
2018-06-21T11:36:16.236Z,1012.05
2018-06-21T11:37:16.161Z,1012.37
2018-06-21T11:38:16.194Z,1012.17
2018-06-21T11:39:16.136Z,1012.14
2018-06-21T11:40:16.121Z,1012.31
2018-06-21T11:41:16.105Z,1012.36
2018-06-21T11:42:16.092Z,1012.28
2018-06-21T11:43:16.081Z,1012.34
2018-06-21T11:44:16.061Z,1012.29
2018-06-21T11:45:16.048Z,1012.40
2018-06-21T11:46:16.043Z,1012.35
2018-06-21T11:47:16.028Z,1012.47
2018-06-21T11:48:16.007Z,1012.53
2018-06-21T11:49:15.990Z,1012.57
2018-06-21T11:50:15.978Z,1012.33
2018-06-21T11:51:16.064Z,1012.34
2018-06-21T11:52:15.973Z,1012.41
2018-06-21T11:53:15.946Z,1012.45
2018-06-21T11:54:15.924Z,1012.21
2018-06-21T11:55:15.908Z,1012.27
2018-06-21T11:56:15.899Z,1012.26
2018-06-21T11:57:15.876Z,1012.20
2018-06-21T11:58:15.872Z,1012.20
2018-06-21T11:59:15.846Z,1012.28
2018-06-21T12:00:15.835Z,1012.35
2018-06-21T12:01:15.822Z,1012.38
2018-06-21T12:02:15.806Z,1012.38
2018-06-21T12:03:15.804Z,1012.43
2018-06-21T12:04:15.780Z,1012.37
2018-06-21T12:05:15.772Z,1012.41
2018-06-21T12:06:15.751Z,1012.50